Time;durP1;ratioP1;P1;durP2;ratioP2;P2;SDS_P1;SDS_P2;PMS_P1;PMS_P2;Temp;Humidity;BMP_temperature;BMP_pressure;BME280_temperature;BME280_humidity;BME280_pressure;Samples;Min_cycle;Max_cycle;Signal;HPM_P1;HPM_P2
2022/12/26 00:01:18;;;;;;;96.70;36.40;;;;;;;;;;4987093;28;20023;-82
2022/12/26 00:03:44;;;;;;;97.97;36.40;;;;;;;;;;4987860;28;20033;-82
2022/12/26 00:06:14;;;;;;;100.93;36.17;;;;;;;;;;4986351;28;20039;-82
2022/12/26 00:08:41;;;;;;;98.37;35.77;;;;;;;;;;4988354;28;20070;-82
2022/12/26 00:11:07;;;;;;;102.75;38.78;;;;;;;;;;4999354;28;20034;-82
2022/12/26 00:13:33;;;;;;;103.47;36.42;;;;;;;;;;4968130;28;20479;-82
2022/12/26 00:15:59;;;;;;;99.03;36.10;;;;;;;;;;4982450;28;20125;-83
2022/12/26 00:18:25;;;;;;;99.38;36.65;;;;;;;;;;4981574;28;20154;-83
2022/12/26 00:20:51;;;;;;;101.07;37.33;;;;;;;;;;4966437;28;20056;-82
2022/12/26 00:23:17;;;;;;;105.47;38.58;;;;;;;;;;4982269;28;20030;-82
2022/12/26 00:25:44;;;;;;;103.22;37.33;;;;;;;;;;4980478;28;20034;-81
2022/12/26 00:28:10;;;;;;;97.30;37.38;;;;;;;;;;4985943;28;20451;-82
2022/12/26 00:30:37;;;;;;;97.00;36.97;;;;;;;;;;4976702;28;20027;-81
2022/12/26 00:33:04;;;;;;;100.63;37.50;;;;;;;;;;4987480;28;20026;-81
2022/12/26 00:35:30;;;;;;;101.93;36.97;;;;;;;;;;4982886;28;20449;-82
2022/12/26 00:37:56;;;;;;;107.35;42.60;;;;;;;;;;4986270;28;20137;-81
2022/12/26 00:40:23;;;;;;;115.88;43.17;;;;;;;;;;4983337;28;20034;-82
2022/12/26 00:42:49;;;;;;;119.30;39.45;;;;;;;;;;5002173;28;20033;-81
2022/12/26 00:45:15;;;;;;;110.40;38.28;;;;;;;;;;4982116;28;20026;-81
2022/12/26 00:47:41;;;;;;;122.07;39.83;;;;;;;;;;4984774;28;20113;-81
2022/12/26 00:50:07;;;;;;;121.68;42.08;;;;;;;;;;4959061;28;20074;-83
2022/12/26 00:52:33;;;;;;;113.85;39.30;;;;;;;;;;4988267;28;20038;-82
2022/12/26 00:54:59;;;;;;;124.07;41.58;;;;;;;;;;4986747;28;20378;-83
2022/12/26 00:57:25;;;;;;;129.02;42.38;;;;;;;;;;4985633;28;20124;-83
2022/12/26 00:59:52;;;;;;;133.00;42.03;;;;;;;;;;4985761;28;20386;-83
2022/12/26 01:05:03;;;;;;;119.05;41.65;;;;;;;;;;4986715;28;20027;-83
2022/12/26 01:07:32;;;;;;;122.32;43.15;;;;;;;;;;4970121;28;20198;-83
2022/12/26 01:09:58;;;;;;;121.97;44.08;;;;;;;;;;4987178;28;20034;-82
2022/12/26 01:12:26;;;;;;;125.97;44.15;;;;;;;;;;4985045;28;20084;-82
2022/12/26 01:14:54;;;;;;;118.13;43.38;;;;;;;;;;4985412;28;20388;-81
2022/12/26 01:17:20;;;;;;;130.43;44.53;;;;;;;;;;4995843;28;20400;-82
2022/12/26 01:19:47;;;;;;;123.80;44.80;;;;;;;;;;4983314;28;20041;-82
2022/12/26 01:22:13;;;;;;;118.35;43.22;;;;;;;;;;4980813;28;20078;-82
2022/12/26 01:24:39;;;;;;;123.55;45.33;;;;;;;;;;4983118;28;20054;-82
2022/12/26 01:27:05;;;;;;;127.78;46.45;;;;;;;;;;4980915;28;20401;-82
2022/12/26 01:29:31;;;;;;;119.55;45.50;;;;;;;;;;4998621;28;20038;-82
2022/12/26 01:31:57;;;;;;;130.80;47.40;;;;;;;;;;4984697;28;20027;-82
2022/12/26 01:34:23;;;;;;;128.93;46.50;;;;;;;;;;4979042;28;20098;-86
2022/12/26 01:36:51;;;;;;;125.20;46.05;;;;;;;;;;4985450;28;20104;-81
2022/12/26 01:39:18;;;;;;;130.23;45.95;;;;;;;;;;4984507;28;20034;-81
2022/12/26 01:41:44;;;;;;;132.20;47.85;;;;;;;;;;4979404;28;20018;-82
2022/12/26 01:44:29;;;;;;;119.32;47.97;;;;;;;;;;4976946;28;20421;-82
2022/12/26 01:46:55;;;;;;;135.85;52.60;;;;;;;;;;4956537;28;20027;-81
2022/12/26 01:49:32;;;;;;;128.45;48.65;;;;;;;;;;4987826;28;20463;-83
2022/12/26 01:52:00;;;;;;;124.45;50.28;;;;;;;;;;4985178;28;20126;-80
2022/12/26 01:54:28;;;;;;;129.52;51.50;;;;;;;;;;4987901;28;20352;-80
2022/12/26 01:56:54;;;;;;;131.30;51.15;;;;;;;;;;4984320;28;20084;-81
2022/12/26 01:59:25;;;;;;;134.63;50.72;;;;;;;;;;4982300;28;20416;-81
2022/12/26 02:01:53;;;;;;;130.50;52.03;;;;;;;;;;4984101;28;20026;-81
2022/12/26 02:07:11;;;;;;;123.95;51.90;;;;;;;;;;4996312;28;20070;-81
2022/12/26 02:09:37;;;;;;;111.90;48.63;;;;;;;;;;4986811;28;20050;-83
2022/12/26 02:12:10;;;;;;;103.95;46.10;;;;;;;;;;4994608;28;20383;-82
2022/12/26 02:14:37;;;;;;;110.97;46.70;;;;;;;;;;4987835;28;20380;-82
2022/12/26 02:17:03;;;;;;;105.68;46.83;;;;;;;;;;4987819;28;20042;-82
2022/12/26 02:19:29;;;;;;;97.38;44.70;;;;;;;;;;4984441;28;20030;-82
2022/12/26 02:21:55;;;;;;;98.07;44.35;;;;;;;;;;4972205;28;20023;-82
2022/12/26 02:24:38;;;;;;;104.25;44.88;;;;;;;;;;4983187;28;20089;-84
2022/12/26 02:27:08;;;;;;;85.88;41.00;;;;;;;;;;4981958;28;20045;-82
2022/12/26 02:29:44;;;;;;;90.75;42.33;;;;;;;;;;4986475;28;20110;-82
2022/12/26 02:32:28;;;;;;;90.80;43.72;;;;;;;;;;4985680;28;20403;-82
2022/12/26 02:35:10;;;;;;;80.72;40.30;;;;;;;;;;4982480;28;20026;-81
2022/12/26 02:37:36;;;;;;;80.25;41.33;;;;;;;;;;4987136;28;20042;-81
2022/12/26 02:40:22;;;;;;;77.18;40.97;;;;;;;;;;4983821;28;20023;-81
2022/12/26 02:42:54;;;;;;;79.43;39.22;;;;;;;;;;4986170;28;20030;-81
2022/12/26 02:48:30;;;;;;;79.82;41.03;;;;;;;;;;4987201;28;20034;-81
2022/12/26 03:13:09;;;;;;;74.15;39.88;;;;;;;;;;4964512;28;20035;-81
2022/12/26 03:14:10;;;;;;;76.30;40.38;;;;;;;;;;4994558;28;20042;-82
2022/12/26 03:19:24;;;;;;;75.38;39.88;;;;;;;;;;4986337;28;20510;-82
2022/12/26 03:21:53;;;;;;;77.93;41.17;;;;;;;;;;4962384;28;20061;-82
2022/12/26 03:24:20;;;;;;;80.80;41.22;;;;;;;;;;4986047;28;20030;-81
2022/12/26 03:26:49;;;;;;;86.97;41.10;;;;;;;;;;4985443;28;20046;-80
2022/12/26 03:32:03;;;;;;;78.95;42.30;;;;;;;;;;4983804;28;20096;-81
2022/12/26 03:34:29;;;;;;;81.50;40.60;;;;;;;;;;4989099;28;20041;-81
2022/12/26 03:36:59;;;;;;;75.50;41.38;;;;;;;;;;4982691;28;20034;-81
2022/12/26 04:19:27;;;;;;;57.63;31.63;;;;;;;;;;4986423;28;20101;-80
2022/12/26 04:44:23;;;;;;;42.42;26.02;;;;;;;;;;4991805;28;20528;-82
2022/12/26 04:46:50;;;;;;;46.08;28.15;;;;;;;;;;4985728;28;20096;-79
2022/12/26 04:52:04;;;;;;;42.20;24.33;;;;;;;;;;4982271;28;20088;-81
2022/12/26 04:54:30;;;;;;;40.10;23.95;;;;;;;;;;4987277;28;20400;-81
2022/12/26 04:56:56;;;;;;;40.08;22.70;;;;;;;;;;5000672;28;20460;-81
2022/12/26 04:59:22;;;;;;;39.33;22.33;;;;;;;;;;4985910;28;20126;-83
2022/12/26 05:10:07;;;;;;;30.00;18.85;;;;;;;;;;4999782;28;20133;-81
2022/12/26 05:12:33;;;;;;;33.47;18.85;;;;;;;;;;4986796;28;20132;-81
2022/12/26 05:14:59;;;;;;;32.60;19.23;;;;;;;;;;4984661;28;20034;-81
2022/12/26 05:28:42;;;;;;;29.23;18.52;;;;;;;;;;4984264;28;20521;-80
2022/12/26 05:31:09;;;;;;;33.47;18.35;;;;;;;;;;4985730;28;20482;-80
2022/12/26 05:36:21;;;;;;;35.30;18.10;;;;;;;;;;4973196;28;20722;-81
2022/12/26 05:38:47;;;;;;;29.13;18.88;;;;;;;;;;4986658;28;20030;-80
2022/12/26 05:41:14;;;;;;;28.95;19.23;;;;;;;;;;4983576;28;20171;-80
2022/12/26 05:43:40;;;;;;;32.28;18.48;;;;;;;;;;4987306;28;20380;-80
2022/12/26 05:46:06;;;;;;;31.52;19.17;;;;;;;;;;4976302;28;20037;-80
2022/12/26 05:48:32;;;;;;;28.90;18.65;;;;;;;;;;4985919;28;20035;-80
2022/12/26 05:51:02;;;;;;;27.27;17.52;;;;;;;;;;4985168;28;20030;-80
2022/12/26 05:53:29;;;;;;;24.70;15.80;;;;;;;;;;4985676;28;20500;-80
2022/12/26 05:55:55;;;;;;;24.92;15.45;;;;;;;;;;4982795;28;20034;-81
2022/12/26 05:58:21;;;;;;;21.52;12.98;;;;;;;;;;4981349;28;20065;-81
2022/12/26 06:00:47;;;;;;;21.85;13.70;;;;;;;;;;4974197;28;20403;-80
2022/12/26 06:03:13;;;;;;;21.08;13.48;;;;;;;;;;4986869;28;20766;-79
2022/12/26 06:05:39;;;;;;;20.98;12.98;;;;;;;;;;4983495;28;20050;-83
2022/12/26 06:08:06;;;;;;;19.35;12.50;;;;;;;;;;4980650;28;20047;-81
2022/12/26 06:10:32;;;;;;;21.17;11.27;;;;;;;;;;4983004;28;20083;-80
2022/12/26 06:13:00;;;;;;;17.27;11.43;;;;;;;;;;4983095;28;20125;-81
2022/12/26 06:15:26;;;;;;;18.05;10.93;;;;;;;;;;4989012;28;20525;-82
2022/12/26 06:17:55;;;;;;;15.43;9.95;;;;;;;;;;4969867;28;20503;-81
2022/12/26 06:20:21;;;;;;;17.92;10.68;;;;;;;;;;4997657;28;20477;-81
2022/12/26 06:22:47;;;;;;;19.33;9.77;;;;;;;;;;5005221;28;20034;-81
2022/12/26 06:25:13;;;;;;;17.67;10.25;;;;;;;;;;4982618;28;20057;-81
2022/12/26 06:27:42;;;;;;;17.80;9.55;;;;;;;;;;5001141;28;20042;-80
2022/12/26 06:30:08;;;;;;;20.75;10.23;;;;;;;;;;4982753;28;20125;-81
2022/12/26 06:32:34;;;;;;;16.88;9.82;;;;;;;;;;4984270;28;20463;-81
2022/12/26 06:35:01;;;;;;;13.65;9.25;;;;;;;;;;5000095;28;20104;-81
2022/12/26 06:37:27;;;;;;;18.20;10.48;;;;;;;;;;4998925;28;20752;-87
2022/12/26 06:39:53;;;;;;;16.20;9.23;;;;;;;;;;4985349;28;20062;-81
2022/12/26 06:42:19;;;;;;;16.85;10.07;;;;;;;;;;4987046;28;20030;-81
2022/12/26 06:44:47;;;;;;;18.27;10.35;;;;;;;;;;4989936;28;20037;-81
2022/12/26 06:47:13;;;;;;;19.73;10.23;;;;;;;;;;4984948;28;20089;-81
2022/12/26 06:49:39;;;;;;;19.05;10.63;;;;;;;;;;5002431;28;20042;-80
2022/12/26 06:52:07;;;;;;;16.98;8.93;;;;;;;;;;4992661;28;20023;-81
2022/12/26 06:54:34;;;;;;;17.08;10.05;;;;;;;;;;4987345;28;20038;-82
2022/12/26 06:57:00;;;;;;;16.83;9.27;;;;;;;;;;4985766;28;20038;-81
2022/12/26 06:59:26;;;;;;;13.80;8.88;;;;;;;;;;5000860;28;20388;-82
2022/12/26 07:01:52;;;;;;;17.10;9.45;;;;;;;;;;4994179;28;20038;-80
2022/12/26 07:04:18;;;;;;;14.20;7.68;;;;;;;;;;4989129;28;20542;-81
2022/12/26 07:06:44;;;;;;;14.45;8.48;;;;;;;;;;4986400;28;20154;-79
2022/12/26 07:09:13;;;;;;;13.90;8.40;;;;;;;;;;4996047;28;20056;-80
2022/12/26 07:11:40;;;;;;;13.85;7.68;;;;;;;;;;4987645;28;20038;-81
2022/12/26 07:14:07;;;;;;;13.13;7.20;;;;;;;;;;4985071;28;20117;-81
2022/12/26 07:16:34;;;;;;;15.00;7.15;;;;;;;;;;4984693;28;20488;-81
2022/12/26 07:19:00;;;;;;;15.90;7.15;;;;;;;;;;4983166;28;20425;-80
2022/12/26 07:21:27;;;;;;;14.45;7.55;;;;;;;;;;4968805;28;20613;-84
2022/12/26 07:23:53;;;;;;;14.07;6.53;;;;;;;;;;4998706;28;20023;-81
2022/12/26 07:26:20;;;;;;;17.38;7.10;;;;;;;;;;4982572;28;20091;-80
2022/12/26 07:28:46;;;;;;;10.93;6.03;;;;;;;;;;4986622;28;20482;-79
2022/12/26 07:31:16;;;;;;;20.80;7.05;;;;;;;;;;4990271;28;20038;-82
2022/12/26 07:33:43;;;;;;;13.77;6.72;;;;;;;;;;4988006;28;20057;-80
2022/12/26 07:36:10;;;;;;;11.00;6.18;;;;;;;;;;4987222;28;20050;-80
2022/12/26 07:38:36;;;;;;;14.23;6.32;;;;;;;;;;5002566;28;20046;-81
2022/12/26 07:41:56;;;;;;;11.18;5.90;;;;;;;;;;5000770;28;20062;-80
2022/12/26 07:43:48;;;;;;;17.48;7.95;;;;;;;;;;4988130;28;20053;-81
2022/12/26 07:46:14;;;;;;;14.57;6.63;;;;;;;;;;4988244;28;20037;-80
2022/12/26 07:48:40;;;;;;;15.23;6.68;;;;;;;;;;4984420;28;20089;-81
2022/12/26 07:51:06;;;;;;;14.95;6.10;;;;;;;;;;4987213;28;20121;-80
2022/12/26 07:53:32;;;;;;;13.30;5.93;;;;;;;;;;4984194;28;20488;-79
2022/12/26 07:55:59;;;;;;;15.98;5.68;;;;;;;;;;4988717;28;20092;-78
2022/12/26 07:58:25;;;;;;;15.32;6.60;;;;;;;;;;4988421;28;20467;-81
2022/12/26 08:00:51;;;;;;;10.13;5.60;;;;;;;;;;4984917;28;20141;-81
2022/12/26 08:03:17;;;;;;;11.43;5.38;;;;;;;;;;4987371;28;20508;-81
2022/12/26 08:05:47;;;;;;;12.70;5.60;;;;;;;;;;4986504;28;20443;-81
2022/12/26 08:08:14;;;;;;;;;;;;;;;;;;4986435;28;20113;-80
2022/12/26 08:10:40;;;;;;;17.75;6.13;;;;;;;;;;4986075;28;20256;-81
2022/12/26 08:13:07;;;;;;;14.50;6.30;;;;;;;;;;4999249;28;20033;-81
2022/12/26 08:15:33;;;;;;;12.80;5.47;;;;;;;;;;4976863;28;20455;-81
2022/12/26 08:17:59;;;;;;;10.23;5.20;;;;;;;;;;4971968;28;20439;-81
2022/12/26 08:20:25;;;;;;;16.70;6.07;;;;;;;;;;4982709;28;20365;-87
2022/12/26 08:22:51;;;;;;;16.40;6.55;;;;;;;;;;4991181;28;20068;-80
2022/12/26 08:25:19;;;;;;;11.57;5.35;;;;;;;;;;4986158;28;20050;-81
2022/12/26 08:27:45;;;;;;;12.73;5.18;;;;;;;;;;4982747;28;20646;-80
2022/12/26 08:30:11;;;;;;;11.48;4.90;;;;;;;;;;4986663;28;20034;-81
2022/12/26 08:32:37;;;;;;;14.02;5.03;;;;;;;;;;4987663;28;20030;-82
2022/12/26 08:35:03;;;;;;;11.30;5.07;;;;;;;;;;4989510;28;20041;-82
2022/12/26 08:37:30;;;;;;;10.90;5.22;;;;;;;;;;4982744;28;20034;-84
2022/12/26 08:39:56;;;;;;;15.43;5.53;;;;;;;;;;5001788;28;20027;-81
2022/12/26 08:42:22;;;;;;;14.07;6.18;;;;;;;;;;4998461;28;20027;-82
2022/12/26 08:44:48;;;;;;;12.10;6.50;;;;;;;;;;4987698;28;20106;-80
2022/12/26 08:47:15;;;;;;;16.17;6.18;;;;;;;;;;4986800;28;20026;-81
2022/12/26 08:49:41;;;;;;;10.20;5.70;;;;;;;;;;4986533;28;20105;-82
2022/12/26 08:52:07;;;;;;;11.40;4.20;;;;;;;;;;4987083;28;20038;-82
2022/12/26 08:54:33;;;;;;;13.95;4.97;;;;;;;;;;4986805;28;20113;-82
2022/12/26 08:56:59;;;;;;;9.50;4.13;;;;;;;;;;4983947;28;20035;-82
2022/12/26 08:59:25;;;;;;;13.15;3.90;;;;;;;;;;4982612;28;20069;-81
2022/12/26 09:01:53;;;;;;;12.43;4.82;;;;;;;;;;4989392;28;20042;-81
2022/12/26 09:04:19;;;;;;;12.35;5.18;;;;;;;;;;4984549;28;20038;-81
2022/12/26 09:06:45;;;;;;;11.00;5.25;;;;;;;;;;4982567;28;20030;-81
2022/12/26 09:09:12;;;;;;;15.50;5.45;;;;;;;;;;4968261;28;20430;-81
2022/12/26 09:11:38;;;;;;;12.27;5.60;;;;;;;;;;4999445;28;20173;-81
2022/12/26 09:14:05;;;;;;;13.10;4.38;;;;;;;;;;4985567;28;20037;-80
2022/12/26 09:16:34;;;;;;;15.00;4.00;;;;;;;;;;4985057;28;20045;-81
2022/12/26 09:19:01;;;;;;;10.07;3.58;;;;;;;;;;4998909;28;20053;-82
2022/12/26 09:21:28;;;;;;;17.50;3.70;;;;;;;;;;4969722;28;20421;-83
2022/12/26 09:24:01;;;;;;;9.68;3.47;;;;;;;;;;4983996;28;20375;-85
2022/12/26 09:26:28;;;;;;;10.63;3.00;;;;;;;;;;4996773;28;20015;-82
2022/12/26 09:28:55;;;;;;;17.25;3.63;;;;;;;;;;4983167;28;20022;-82
2022/12/26 09:31:23;;;;;;;21.55;4.38;;;;;;;;;;5000584;28;20096;-82
2022/12/26 09:33:50;;;;;;;24.95;4.47;;;;;;;;;;4983486;28;20514;-80
2022/12/26 09:36:17;;;;;;;20.45;3.30;;;;;;;;;;4984965;28;20049;-81
2022/12/26 09:38:44;;;;;;;22.40;4.18;;;;;;;;;;4979965;28;20031;-81
2022/12/26 09:41:20;;;;;;;15.60;3.20;;;;;;;;;;4981667;28;20054;-81
2022/12/26 09:44:05;;;;;;;28.08;3.55;;;;;;;;;;4978770;28;20018;-81
2022/12/26 09:46:33;;;;;;;16.73;3.08;;;;;;;;;;4977594;28;20049;-82
2022/12/26 09:49:13;;;;;;;14.15;2.50;;;;;;;;;;4986088;28;20042;-81
2022/12/26 09:51:41;;;;;;;17.40;4.20;;;;;;;;;;4984539;28;20385;-85
2022/12/26 09:54:11;;;;;;;19.65;3.45;;;;;;;;;;4995377;28;20106;-83
2022/12/26 09:56:37;;;;;;;23.95;3.95;;;;;;;;;;4976605;28;20030;-81
2022/12/26 09:59:17;;;;;;;11.98;2.47;;;;;;;;;;4998321;28;20030;-81
2022/12/26 10:01:43;;;;;;;19.60;4.05;;;;;;;;;;4989333;28;20475;-81
2022/12/26 10:04:17;;;;;;;15.10;2.70;;;;;;;;;;4989268;28;20432;-81
2022/12/26 10:06:53;;;;;;;18.25;3.22;;;;;;;;;;4987171;28;20663;-80
2022/12/26 10:09:34;;;;;;;18.77;2.90;;;;;;;;;;4986717;28;20050;-81
2022/12/26 10:12:01;;;;;;;16.17;2.67;;;;;;;;;;4988658;28;20348;-81
2022/12/26 10:14:30;;;;;;;17.40;3.47;;;;;;;;;;5003947;28;20089;-85
2022/12/26 10:17:01;;;;;;;17.13;3.55;;;;;;;;;;4993848;28;20107;-81
2022/12/26 10:19:43;;;;;;;21.13;2.70;;;;;;;;;;5001313;28;20022;-81
2022/12/26 10:22:28;;;;;;;15.23;3.03;;;;;;;;;;4981957;28;20019;-87
2022/12/26 10:24:56;;;;;;;16.00;2.67;;;;;;;;;;4992401;28;20397;-80
2022/12/26 10:27:24;;;;;;;20.50;3.45;;;;;;;;;;4988418;28;20034;-81
2022/12/26 10:29:59;;;;;;;13.35;2.28;;;;;;;;;;4992157;28;20022;-81
2022/12/26 10:32:29;;;;;;;16.23;3.47;;;;;;;;;;4989692;28;20049;-83
2022/12/26 10:34:56;;;;;;;17.67;2.83;;;;;;;;;;4987953;28;20034;-81
2022/12/26 10:37:25;;;;;;;19.70;2.83;;;;;;;;;;4984801;28;20113;-81
2022/12/26 10:39:54;;;;;;;18.38;2.45;;;;;;;;;;4987232;28;20034;-80
2022/12/26 10:42:26;;;;;;;16.08;2.13;;;;;;;;;;4988343;28;20038;-79
2022/12/26 10:44:52;;;;;;;7.28;1.70;;;;;;;;;;4989022;28;20030;-80
2022/12/26 10:47:24;;;;;;;15.63;3.28;;;;;;;;;;4991664;28;20057;-80
2022/12/26 10:49:51;;;;;;;20.63;2.72;;;;;;;;;;5004202;28;20030;-80
2022/12/26 10:52:18;;;;;;;12.32;1.80;;;;;;;;;;4987747;28;20041;-80
2022/12/26 10:54:47;;;;;;;16.10;2.28;;;;;;;;;;4989004;28;20400;-80
2022/12/26 10:57:14;;;;;;;15.15;2.10;;;;;;;;;;4984387;28;20034;-80
2022/12/26 10:59:43;;;;;;;11.40;1.70;;;;;;;;;;4997976;28;20435;-86
2022/12/26 11:02:29;;;;;;;9.38;1.90;;;;;;;;;;4982147;28;20029;-79
2022/12/26 11:05:00;;;;;;;7.70;1.50;;;;;;;;;;5004279;28;20051;-80
2022/12/26 11:07:29;;;;;;;12.13;1.92;;;;;;;;;;4984215;28;20047;-81
2022/12/26 11:09:57;;;;;;;19.17;2.22;;;;;;;;;;4997110;28;20036;-80
2022/12/26 11:12:48;;;;;;;8.85;1.52;;;;;;;;;;4984953;28;20034;-81
2022/12/26 11:15:18;;;;;;;10.73;1.92;;;;;;;;;;4989335;28;20149;-80
2022/12/26 11:17:46;;;;;;;13.02;1.58;;;;;;;;;;4984615;28;20030;-81
2022/12/26 11:20:15;;;;;;;10.10;1.73;;;;;;;;;;4986805;28;20042;-81
2022/12/26 11:22:42;;;;;;;13.23;2.30;;;;;;;;;;5003308;28;20036;-81
2022/12/26 11:25:21;;;;;;;10.38;1.80;;;;;;;;;;4985422;28;20061;-79
2022/12/26 11:27:48;;;;;;;5.28;1.33;;;;;;;;;;5000323;28;20026;-79
2022/12/26 11:30:15;;;;;;;6.10;1.30;;;;;;;;;;4987705;28;20045;-82
2022/12/26 11:32:46;;;;;;;8.77;1.30;;;;;;;;;;4973304;28;20396;-81
2022/12/26 11:35:20;;;;;;;11.25;1.75;;;;;;;;;;4986760;28;20492;-82
2022/12/26 11:37:47;;;;;;;8.80;2.30;;;;;;;;;;4987103;28;20030;-81
2022/12/26 11:40:18;;;;;;;15.68;1.95;;;;;;;;;;4987248;28;20373;-81
2022/12/26 11:42:48;;;;;;;8.93;2.33;;;;;;;;;;4987008;28;20498;-81
2022/12/26 11:45:20;;;;;;;11.73;1.60;;;;;;;;;;4988963;28;20035;-80
2022/12/26 11:47:46;;;;;;;11.18;2.30;;;;;;;;;;4984503;28;20034;-82
2022/12/26 11:50:20;;;;;;;9.73;2.30;;;;;;;;;;4986248;28;20408;-80
2022/12/26 11:52:55;;;;;;;13.98;2.50;;;;;;;;;;4981023;28;20030;-80
2022/12/26 11:55:29;;;;;;;12.85;2.65;;;;;;;;;;4970415;28;20113;-79
2022/12/26 11:57:55;;;;;;;8.80;1.40;;;;;;;;;;4983715;28;20117;-81
2022/12/26 12:00:22;;;;;;;15.45;1.92;;;;;;;;;;4986518;28;20447;-80
2022/12/26 12:02:48;;;;;;;13.23;3.13;;;;;;;;;;4999503;28;20030;-80
2022/12/26 12:05:28;;;;;;;11.43;2.17;;;;;;;;;;4980076;28;20073;-80
2022/12/26 12:08:10;;;;;;;12.25;2.03;;;;;;;;;;4993973;28;20060;-81
2022/12/26 12:10:49;;;;;;;10.68;2.50;;;;;;;;;;4995290;28;20097;-79
2022/12/26 12:13:26;;;;;;;9.27;2.17;;;;;;;;;;4987612;28;20030;-81
2022/12/26 12:15:59;;;;;;;8.40;1.98;;;;;;;;;;4996257;28;20059;-80
2022/12/26 12:18:46;;;;;;;5.78;1.60;;;;;;;;;;4997634;28;20085;-84
2022/12/26 12:21:20;;;;;;;8.55;2.13;;;;;;;;;;4983286;28;20118;-80
2022/12/26 12:24:05;;;;;;;7.60;1.60;;;;;;;;;;4988860;28;20027;-80
2022/12/26 12:26:35;;;;;;;6.30;1.67;;;;;;;;;;4970481;28;20034;-80
2022/12/26 12:29:04;;;;;;;10.60;1.53;;;;;;;;;;4986097;28;20113;-81
2022/12/26 12:31:50;;;;;;;6.50;1.70;;;;;;;;;;4987124;28;20670;-81
2022/12/26 12:34:19;;;;;;;6.50;1.80;;;;;;;;;;4987086;28;20041;-79
2022/12/26 12:37:04;;;;;;;7.13;1.83;;;;;;;;;;4981045;28;20030;-79
2022/12/26 12:39:49;;;;;;;8.57;2.00;;;;;;;;;;4987897;28;20381;-80
2022/12/26 12:42:15;;;;;;;6.93;1.23;;;;;;;;;;4994079;28;20018;-79
2022/12/26 12:45:00;;;;;;;8.30;1.40;;;;;;;;;;4991231;28;20038;-79
2022/12/26 12:47:35;;;;;;;8.65;1.48;;;;;;;;;;5002288;28;20038;-79
2022/12/26 12:50:11;;;;;;;7.75;1.75;;;;;;;;;;4990960;28;20031;-79
2022/12/26 12:52:50;;;;;;;8.15;2.80;;;;;;;;;;4984785;28;20402;-79
2022/12/26 12:55:29;;;;;;;6.55;1.52;;;;;;;;;;4986399;28;20034;-80
2022/12/26 12:58:02;;;;;;;5.07;1.63;;;;;;;;;;4984207;28;20038;-79
2022/12/26 13:00:34;;;;;;;9.43;1.85;;;;;;;;;;4982505;28;20022;-79
2022/12/26 13:03:25;;;;;;;7.25;1.52;;;;;;;;;;4986207;28;20030;-79
2022/12/26 13:05:59;;;;;;;10.27;1.50;;;;;;;;;;4986487;28;20112;-80
2022/12/26 13:08:46;;;;;;;9.13;2.50;;;;;;;;;;4978860;28;20109;-80
2022/12/26 13:11:30;;;;;;;15.77;1.80;;;;;;;;;;5000464;28;20550;-79
2022/12/26 13:14:06;;;;;;;12.15;2.28;;;;;;;;;;4970609;28;20441;-79
2022/12/26 13:16:42;;;;;;;8.43;2.03;;;;;;;;;;4993094;28;20215;-81
2022/12/26 13:19:12;;;;;;;9.32;1.77;;;;;;;;;;4984856;28;20026;-79
2022/12/26 13:21:40;;;;;;;9.65;2.22;;;;;;;;;;4982480;28;20110;-79
2022/12/26 13:24:25;;;;;;;16.70;2.50;;;;;;;;;;4986031;28;20026;-80
2022/12/26 13:26:56;;;;;;;10.80;2.10;;;;;;;;;;4987060;28;20030;-80
2022/12/26 13:29:25;;;;;;;11.93;1.80;;;;;;;;;;4986141;28;20046;-79
2022/12/26 13:31:52;;;;;;;6.03;1.80;;;;;;;;;;4984771;28;20302;-81
2022/12/26 13:34:19;;;;;;;19.30;2.65;;;;;;;;;;4988696;28;20065;-79
2022/12/26 13:36:53;;;;;;;9.68;1.85;;;;;;;;;;4984394;28;20089;-80
2022/12/26 13:39:22;;;;;;;16.33;2.42;;;;;;;;;;4970438;28;20026;-80
2022/12/26 13:44:38;;;;;;;13.10;2.58;;;;;;;;;;4985429;28;20037;-80
2022/12/26 13:47:04;;;;;;;15.52;3.15;;;;;;;;;;4987560;28;20030;-80
2022/12/26 13:49:34;;;;;;;11.18;1.67;;;;;;;;;;4989343;28;20117;-81
2022/12/26 13:52:10;;;;;;;14.13;2.30;;;;;;;;;;4988095;28;20392;-81
2022/12/26 13:54:37;;;;;;;18.73;2.50;;;;;;;;;;4976405;28;20034;-80
2022/12/26 13:57:14;;;;;;;19.17;3.55;;;;;;;;;;4986361;28;20048;-83
2022/12/26 13:59:58;;;;;;;15.00;1.95;;;;;;;;;;4988480;28;20062;-81
2022/12/26 14:02:44;;;;;;;16.90;2.88;;;;;;;;;;4980464;28;20027;-80
2022/12/26 14:05:29;;;;;;;12.82;2.30;;;;;;;;;;4983396;28;20057;-81
2022/12/26 14:07:59;;;;;;;12.95;3.15;;;;;;;;;;4982800;28;20061;-81
2022/12/26 14:10:31;;;;;;;11.27;1.80;;;;;;;;;;4990882;28;20080;-80
2022/12/26 14:13:02;;;;;;;13.68;2.15;;;;;;;;;;4991134;28;20038;-80
2022/12/26 14:15:35;;;;;;;11.35;2.03;;;;;;;;;;4993868;28;20481;-81
2022/12/26 14:18:20;;;;;;;15.25;1.80;;;;;;;;;;4985998;28;20030;-80
2022/12/26 14:20:55;;;;;;;16.95;2.00;;;;;;;;;;4984627;28;20043;-81
2022/12/26 14:23:44;;;;;;;10.05;2.00;;;;;;;;;;4982218;28;20468;-80
2022/12/26 14:26:29;;;;;;;12.20;2.25;;;;;;;;;;4975753;28;20031;-79
2022/12/26 14:29:08;;;;;;;22.05;2.40;;;;;;;;;;4982994;28;20122;-80
2022/12/26 14:31:40;;;;;;;10.25;1.90;;;;;;;;;;4984350;28;20034;-81
2022/12/26 14:34:06;;;;;;;9.57;1.33;;;;;;;;;;4984572;28;20476;-81
2022/12/26 14:36:33;;;;;;;9.57;2.05;;;;;;;;;;4990717;28;20037;-80
2022/12/26 14:39:17;;;;;;;8.70;2.00;;;;;;;;;;4988083;28;20038;-80
2022/12/26 14:44:59;;;;;;;14.02;1.90;;;;;;;;;;4980414;28;20081;-81
2022/12/26 14:47:44;;;;;;;14.82;2.63;;;;;;;;;;4990222;28;20474;-85
2022/12/26 14:50:28;;;;;;;11.57;1.80;;;;;;;;;;4986818;28;20096;-79
2022/12/26 14:52:55;;;;;;;9.50;1.80;;;;;;;;;;4983495;28;20041;-79
2022/12/26 14:55:46;;;;;;;5.55;1.83;;;;;;;;;;4984655;28;20415;-80
2022/12/26 14:58:31;;;;;;;13.95;2.00;;;;;;;;;;5004663;28;20017;-80
2022/12/26 15:01:14;;;;;;;11.80;2.05;;;;;;;;;;4987300;28;20031;-80
2022/12/26 15:03:58;;;;;;;17.10;2.00;;;;;;;;;;4990212;28;20215;-80
2022/12/26 15:06:43;;;;;;;14.98;1.85;;;;;;;;;;4985585;28;20027;-80
2022/12/26 15:09:28;;;;;;;14.85;2.10;;;;;;;;;;4983208;28;20069;-80
2022/12/26 15:12:16;;;;;;;11.98;2.30;;;;;;;;;;4990236;28;21198;-79
2022/12/26 15:15:04;;;;;;;12.25;1.85;;;;;;;;;;5002805;28;20109;-80
2022/12/26 15:17:33;;;;;;;15.02;2.58;;;;;;;;;;4984716;28;20443;-80
2022/12/26 15:20:05;;;;;;;14.57;2.85;;;;;;;;;;4984512;28;20397;-79
2022/12/26 15:22:34;;;;;;;11.95;2.38;;;;;;;;;;5001336;28;20088;-82
2022/12/26 15:25:00;;;;;;;11.38;2.70;;;;;;;;;;4981605;28;20930;-78
2022/12/26 15:27:41;;;;;;;17.45;2.30;;;;;;;;;;4985218;28;20105;-79
2022/12/26 15:30:10;;;;;;;20.83;2.60;;;;;;;;;;4998522;28;20038;-78
2022/12/26 15:32:46;;;;;;;13.90;2.85;;;;;;;;;;4983634;28;20039;-80
2022/12/26 15:35:12;;;;;;;12.40;2.58;;;;;;;;;;4969490;28;20030;-79
2022/12/26 15:37:41;;;;;;;16.92;2.20;;;;;;;;;;4983198;28;20124;-79
2022/12/26 15:40:22;;;;;;;17.10;2.30;;;;;;;;;;4978347;28;20128;-79
2022/12/26 15:43:24;;;;;;;18.02;2.10;;;;;;;;;;4987244;28;20084;-78
2022/12/26 15:45:56;;;;;;;10.50;2.17;;;;;;;;;;4946976;28;20039;-79
2022/12/26 15:48:57;;;;;;;16.33;2.42;;;;;;;;;;4978091;28;20563;-79
2022/12/26 15:51:46;;;;;;;11.82;2.67;;;;;;;;;;4912664;29;20031;-78
2022/12/26 15:54:34;;;;;;;12.32;2.20;;;;;;;;;;4989588;28;20061;-85
2022/12/26 15:57:12;;;;;;;12.45;2.60;;;;;;;;;;4983703;28;20026;-78
2022/12/26 15:59:38;;;;;;;19.52;2.60;;;;;;;;;;4983006;28;20038;-78
2022/12/26 16:02:11;;;;;;;9.73;2.03;;;;;;;;;;5003033;28;20105;-78
2022/12/26 16:04:45;;;;;;;16.30;2.90;;;;;;;;;;4986711;28;20121;-78
2022/12/26 16:07:14;;;;;;;16.50;2.20;;;;;;;;;;4985627;28;20070;-78
2022/12/26 16:09:45;;;;;;;15.90;2.97;;;;;;;;;;4986655;28;20092;-78
2022/12/26 16:12:11;;;;;;;;;;;;;;;;;;4999504;28;20054;-79
2022/12/26 16:14:38;;;;;;;17.77;2.53;;;;;;;;;;4985952;28;19953;-78
2022/12/26 16:17:14;;;;;;;23.92;2.88;;;;;;;;;;4984876;28;20038;-78
2022/12/26 16:19:41;;;;;;;11.15;2.78;;;;;;;;;;4985096;28;20121;-79
2022/12/26 16:24:56;;;;;;;17.05;3.30;;;;;;;;;;4984617;28;20029;-79
2022/12/26 16:27:23;;;;;;;21.98;3.50;;;;;;;;;;5001444;28;20037;-80
2022/12/26 16:29:52;;;;;;;18.45;3.00;;;;;;;;;;4982216;28;20026;-80
2022/12/26 16:32:20;;;;;;;19.85;4.15;;;;;;;;;;4986449;28;20121;-80
2022/12/26 16:34:46;;;;;;;14.23;2.67;;;;;;;;;;4982689;28;20038;-80
2022/12/26 16:37:21;;;;;;;14.18;3.13;;;;;;;;;;4985300;28;20026;-80
2022/12/26 16:40:07;;;;;;;18.08;3.30;;;;;;;;;;4982713;28;20030;-79
2022/12/26 16:42:33;;;;;;;19.17;4.90;;;;;;;;;;4979880;28;20512;-83
2022/12/26 16:45:00;;;;;;;16.65;4.03;;;;;;;;;;4984852;28;20578;-79
2022/12/26 16:47:27;;;;;;;22.80;4.82;;;;;;;;;;4999367;28;20027;-80
2022/12/26 16:49:53;;;;;;;12.85;3.42;;;;;;;;;;4986401;28;20416;-80
2022/12/26 16:52:32;;;;;;;14.38;3.03;;;;;;;;;;4989370;28;20041;-79
2022/12/26 16:55:18;;;;;;;24.52;3.88;;;;;;;;;;4986748;28;20036;-88
2022/12/26 16:57:44;;;;;;;23.42;3.67;;;;;;;;;;4983278;28;20041;-80